Martinsburg, Ohio
Current Conditions -  °F | °C
As of 12:55 PM on Tuesday 21 Oct 2014 (Local Time) from K4I3 Reporting Station
Haze Haze  
Wind Chill: 44°   Ceiling: 1400
Heat Index: 48°   Visibility: 4mi
Dew Point: 46°   Wind: 9mph
Humidity: 93%   Direction: 320°NW
Pressure: 29.97"   Gusts: 22mph
Location:  40.27°N, 82.35°W
Report Text: K4I3 211655Z AUTO 32008G19KT 4SM BR SCT005 BKN014 BKN018 09/08 A2997 RMK AO2
Loading
Personal Weather Stations






























Interactive Weather Map
Tropical Storm Tracking
New forecast layout! Learn more

10-Day Weather Forecast

Advertisements
Track Severe Weather on mobile